sensor_id;sensor_type;location;lat;lon;timestamp;P1;durP1;ratioP1;P2;durP2;ratioP2
52025;SDS011;38041;40.058;18.328;2023-04-06T00:01:29;5.93;;;2.83;;
52025;SDS011;38041;40.058;18.328;2023-04-06T00:03:57;4.63;;;2.07;;
52025;SDS011;38041;40.058;18.328;2023-04-06T00:06:24;3.03;;;2.03;;
52025;SDS011;38041;40.058;18.328;2023-04-06T00:08:53;2.73;;;2.33;;
52025;SDS011;38041;40.058;18.328;2023-04-06T00:11:21;3.00;;;2.47;;
52025;SDS011;38041;40.058;18.328;2023-04-06T00:13:49;3.30;;;1.90;;
52025;SDS011;38041;40.058;18.328;2023-04-06T00:16:17;5.10;;;2.87;;
52025;SDS011;38041;40.058;18.328;2023-04-06T00:18:44;5.33;;;1.40;;
52025;SDS011;38041;40.058;18.328;2023-04-06T00:21:13;3.07;;;1.10;;
52025;SDS011;38041;40.058;18.328;2023-04-06T00:23:41;2.73;;;0.73;;
52025;SDS011;38041;40.058;18.328;2023-04-06T00:26:09;2.60;;;1.00;;
52025;SDS011;38041;40.058;18.328;2023-04-06T00:28:40;3.03;;;1.33;;
52025;SDS011;38041;40.058;18.328;2023-04-06T00:31:08;5.37;;;1.07;;
52025;SDS011;38041;40.058;18.328;2023-04-06T00:33:36;3.33;;;1.53;;
52025;SDS011;38041;40.058;18.328;2023-04-06T00:36:04;3.53;;;1.47;;
52025;SDS011;38041;40.058;18.328;2023-04-06T00:38:32;5.13;;;2.03;;
52025;SDS011;38041;40.058;18.328;2023-04-06T00:41:00;1.90;;;1.50;;
52025;SDS011;38041;40.058;18.328;2023-04-06T00:43:27;3.80;;;1.73;;
52025;SDS011;38041;40.058;18.328;2023-04-06T00:45:55;1.90;;;1.03;;
52025;SDS011;38041;40.058;18.328;2023-04-06T00:48:23;2.13;;;1.50;;
52025;SDS011;38041;40.058;18.328;2023-04-06T00:50:51;2.53;;;1.00;;
52025;SDS011;38041;40.058;18.328;2023-04-06T00:53:18;2.33;;;1.00;;
52025;SDS011;38041;40.058;18.328;2023-04-06T00:55:46;1.73;;;0.90;;
52025;SDS011;38041;40.058;18.328;2023-04-06T00:58:14;4.27;;;0.70;;
52025;SDS011;38041;40.058;18.328;2023-04-06T01:00:48;1.20;;;0.77;;
52025;SDS011;38041;40.058;18.328;2023-04-06T01:03:18;1.77;;;0.70;;
52025;SDS011;38041;40.058;18.328;2023-04-06T01:05:46;3.67;;;0.90;;
52025;SDS011;38041;40.058;18.328;2023-04-06T01:08:21;2.10;;;0.67;;
52025;SDS011;38041;40.058;18.328;2023-04-06T01:10:52;1.53;;;0.97;;
52025;SDS011;38041;40.058;18.328;2023-04-06T01:13:24;2.23;;;0.80;;
52025;SDS011;38041;40.058;18.328;2023-04-06T01:15:55;1.73;;;1.23;;
52025;SDS011;38041;40.058;18.328;2023-04-06T01:18:32;1.60;;;0.70;;
52025;SDS011;38041;40.058;18.328;2023-04-06T01:21:14;3.13;;;0.57;;
52025;SDS011;38041;40.058;18.328;2023-04-06T01:24:11;2.20;;;0.70;;
52025;SDS011;38041;40.058;18.328;2023-04-06T01:26:56;2.33;;;0.50;;
52025;SDS011;38041;40.058;18.328;2023-04-06T01:29:27;3.13;;;0.97;;
52025;SDS011;38041;40.058;18.328;2023-04-06T01:31:55;2.43;;;0.67;;
52025;SDS011;38041;40.058;18.328;2023-04-06T01:34:24;1.10;;;0.50;;
52025;SDS011;38041;40.058;18.328;2023-04-06T01:36:53;3.10;;;0.50;;
52025;SDS011;38041;40.058;18.328;2023-04-06T01:39:28;1.13;;;0.70;;
52025;SDS011;38041;40.058;18.328;2023-04-06T01:41:58;1.47;;;0.60;;
52025;SDS011;38041;40.058;18.328;2023-04-06T01:44:27;1.43;;;0.63;;
52025;SDS011;38041;40.058;18.328;2023-04-06T01:47:05;2.20;;;0.70;;
52025;SDS011;38041;40.058;18.328;2023-04-06T01:49:33;1.53;;;0.87;;
52025;SDS011;38041;40.058;18.328;2023-04-06T01:52:02;2.93;;;0.87;;
52025;SDS011;38041;40.058;18.328;2023-04-06T01:54:30;2.20;;;0.80;;
52025;SDS011;38041;40.058;18.328;2023-04-06T01:57:11;1.87;;;0.60;;
52025;SDS011;38041;40.058;18.328;2023-04-06T01:59:46;1.23;;;1.00;;
52025;SDS011;38041;40.058;18.328;2023-04-06T02:02:25;1.70;;;0.97;;
52025;SDS011;38041;40.058;18.328;2023-04-06T02:05:06;1.43;;;1.00;;
52025;SDS011;38041;40.058;18.328;2023-04-06T02:07:34;1.37;;;0.70;;
52025;SDS011;38041;40.058;18.328;2023-04-06T02:10:02;2.93;;;0.67;;
52025;SDS011;38041;40.058;18.328;2023-04-06T02:12:37;1.08;;;0.55;;
52025;SDS011;38041;40.058;18.328;2023-04-06T02:15:08;1.70;;;0.80;;
52025;SDS011;38041;40.058;18.328;2023-04-06T02:17:36;1.93;;;1.10;;
52025;SDS011;38041;40.058;18.328;2023-04-06T02:20:04;1.63;;;0.90;;
52025;SDS011;38041;40.058;18.328;2023-04-06T02:22:32;6.67;;;1.90;;
52025;SDS011;38041;40.058;18.328;2023-04-06T02:25:00;3.03;;;1.03;;
52025;SDS011;38041;40.058;18.328;2023-04-06T02:27:27;4.57;;;1.17;;
52025;SDS011;38041;40.058;18.328;2023-04-06T02:29:55;1.80;;;1.03;;
52025;SDS011;38041;40.058;18.328;2023-04-06T02:32:23;1.97;;;1.20;;
52025;SDS011;38041;40.058;18.328;2023-04-06T02:34:52;4.10;;;1.10;;
52025;SDS011;38041;40.058;18.328;2023-04-06T02:37:21;1.53;;;1.10;;
52025;SDS011;38041;40.058;18.328;2023-04-06T02:39:51;4.90;;;1.00;;
52025;SDS011;38041;40.058;18.328;2023-04-06T02:42:19;1.33;;;1.07;;
52025;SDS011;38041;40.058;18.328;2023-04-06T02:44:49;1.20;;;0.87;;
52025;SDS011;38041;40.058;18.328;2023-04-06T02:47:19;1.60;;;1.33;;
52025;SDS011;38041;40.058;18.328;2023-04-06T02:49:49;3.53;;;0.90;;
52025;SDS011;38041;40.058;18.328;2023-04-06T02:52:17;1.03;;;0.57;;
52025;SDS011;38041;40.058;18.328;2023-04-06T02:54:45;3.67;;;0.80;;
52025;SDS011;38041;40.058;18.328;2023-04-06T02:57:18;1.67;;;0.80;;
52025;SDS011;38041;40.058;18.328;2023-04-06T02:59:46;2.37;;;1.30;;
52025;SDS011;38041;40.058;18.328;2023-04-06T03:02:19;1.93;;;0.70;;
52025;SDS011;38041;40.058;18.328;2023-04-06T03:04:47;3.07;;;1.13;;
52025;SDS011;38041;40.058;18.328;2023-04-06T03:07:24;1.50;;;1.13;;
52025;SDS011;38041;40.058;18.328;2023-04-06T03:09:52;3.10;;;1.33;;
52025;SDS011;38041;40.058;18.328;2023-04-06T03:12:20;1.90;;;1.47;;
52025;SDS011;38041;40.058;18.328;2023-04-06T03:15:23;1.70;;;1.23;;
52025;SDS011;38041;40.058;18.328;2023-04-06T03:17:57;4.73;;;1.60;;
52025;SDS011;38041;40.058;18.328;2023-04-06T03:20:34;2.33;;;1.30;;
52025;SDS011;38041;40.058;18.328;2023-04-06T03:23:01;2.50;;;1.37;;
52025;SDS011;38041;40.058;18.328;2023-04-06T03:25:34;1.70;;;0.90;;
52025;SDS011;38041;40.058;18.328;2023-04-06T03:28:05;1.90;;;1.40;;
52025;SDS011;38041;40.058;18.328;2023-04-06T03:30:38;2.17;;;1.10;;
52025;SDS011;38041;40.058;18.328;2023-04-06T03:33:06;3.50;;;1.40;;
52025;SDS011;38041;40.058;18.328;2023-04-06T03:35:42;3.00;;;1.20;;
52025;SDS011;38041;40.058;18.328;2023-04-06T03:38:10;2.23;;;1.70;;
52025;SDS011;38041;40.058;18.328;2023-04-06T03:40:38;3.53;;;2.13;;
52025;SDS011;38041;40.058;18.328;2023-04-06T03:43:05;2.33;;;1.30;;
52025;SDS011;38041;40.058;18.328;2023-04-06T03:45:35;2.13;;;1.47;;
52025;SDS011;38041;40.058;18.328;2023-04-06T03:48:04;4.63;;;1.60;;
52025;SDS011;38041;40.058;18.328;2023-04-06T03:50:35;2.43;;;1.97;;
52025;SDS011;38041;40.058;18.328;2023-04-06T03:53:04;4.27;;;1.87;;
52025;SDS011;38041;40.058;18.328;2023-04-06T03:55:32;4.60;;;2.03;;
52025;SDS011;38041;40.058;18.328;2023-04-06T03:58:00;2.87;;;1.50;;
52025;SDS011;38041;40.058;18.328;2023-04-06T04:00:29;1.97;;;1.40;;
52025;SDS011;38041;40.058;18.328;2023-04-06T04:02:56;3.60;;;1.93;;
52025;SDS011;38041;40.058;18.328;2023-04-06T04:05:24;3.00;;;1.93;;
52025;SDS011;38041;40.058;18.328;2023-04-06T04:07:52;2.80;;;1.70;;
52025;SDS011;38041;40.058;18.328;2023-04-06T04:10:24;3.53;;;2.07;;
52025;SDS011;38041;40.058;18.328;2023-04-06T04:12:51;6.80;;;2.40;;
52025;SDS011;38041;40.058;18.328;2023-04-06T04:15:19;3.23;;;2.70;;
52025;SDS011;38041;40.058;18.328;2023-04-06T04:17:47;5.10;;;3.00;;
52025;SDS011;38041;40.058;18.328;2023-04-06T04:20:16;7.07;;;3.20;;
52025;SDS011;38041;40.058;18.328;2023-04-06T04:22:44;3.37;;;2.63;;
52025;SDS011;38041;40.058;18.328;2023-04-06T04:25:11;4.60;;;2.73;;
52025;SDS011;38041;40.058;18.328;2023-04-06T04:27:44;4.33;;;3.00;;
52025;SDS011;38041;40.058;18.328;2023-04-06T04:30:13;3.43;;;2.53;;
52025;SDS011;38041;40.058;18.328;2023-04-06T04:32:41;5.70;;;3.00;;
52025;SDS011;38041;40.058;18.328;2023-04-06T04:35:09;4.17;;;3.43;;
52025;SDS011;38041;40.058;18.328;2023-04-06T04:37:40;5.10;;;3.63;;
52025;SDS011;38041;40.058;18.328;2023-04-06T04:40:10;3.70;;;2.80;;
52025;SDS011;38041;40.058;18.328;2023-04-06T04:42:46;4.20;;;2.63;;
52025;SDS011;38041;40.058;18.328;2023-04-06T04:45:23;7.03;;;3.33;;
52025;SDS011;38041;40.058;18.328;2023-04-06T04:47:52;4.80;;;3.23;;
52025;SDS011;38041;40.058;18.328;2023-04-06T04:50:22;5.57;;;3.63;;
52025;SDS011;38041;40.058;18.328;2023-04-06T04:52:55;8.77;;;4.40;;
52025;SDS011;38041;40.058;18.328;2023-04-06T04:55:25;4.20;;;3.80;;
52025;SDS011;38041;40.058;18.328;2023-04-06T04:57:56;5.87;;;3.33;;
52025;SDS011;38041;40.058;18.328;2023-04-06T05:00:38;7.97;;;3.77;;
52025;SDS011;38041;40.058;18.328;2023-04-06T05:03:06;6.27;;;3.43;;
52025;SDS011;38041;40.058;18.328;2023-04-06T05:05:37;4.70;;;4.20;;
52025;SDS011;38041;40.058;18.328;2023-04-06T05:08:06;3.37;;;3.07;;
52025;SDS011;38041;40.058;18.328;2023-04-06T05:10:51;5.57;;;4.32;;
52025;SDS011;38041;40.058;18.328;2023-04-06T05:13:20;5.33;;;3.77;;
52025;SDS011;38041;40.058;18.328;2023-04-06T05:15:49;5.70;;;3.27;;
52025;SDS011;38041;40.058;18.328;2023-04-06T05:18:27;7.90;;;3.93;;
52025;SDS011;38041;40.058;18.328;2023-04-06T05:20:56;6.87;;;3.20;;
52025;SDS011;38041;40.058;18.328;2023-04-06T05:23:31;4.03;;;3.60;;
52025;SDS011;38041;40.058;18.328;2023-04-06T05:26:02;3.90;;;2.67;;
52025;SDS011;38041;40.058;18.328;2023-04-06T05:28:30;3.50;;;2.70;;
52025;SDS011;38041;40.058;18.328;2023-04-06T05:30:59;3.83;;;2.87;;
52025;SDS011;38041;40.058;18.328;2023-04-06T05:33:37;5.13;;;3.23;;
52025;SDS011;38041;40.058;18.328;2023-04-06T05:36:08;5.93;;;3.33;;
52025;SDS011;38041;40.058;18.328;2023-04-06T05:38:41;7.70;;;3.03;;
52025;SDS011;38041;40.058;18.328;2023-04-06T05:41:29;5.03;;;2.47;;
52025;SDS011;38041;40.058;18.328;2023-04-06T05:43:57;8.17;;;3.33;;
52025;SDS011;38041;40.058;18.328;2023-04-06T05:46:26;4.83;;;3.00;;
52025;SDS011;38041;40.058;18.328;2023-04-06T05:48:56;3.77;;;2.87;;
52025;SDS011;38041;40.058;18.328;2023-04-06T05:51:28;4.43;;;3.50;;
52025;SDS011;38041;40.058;18.328;2023-04-06T05:53:56;5.80;;;3.40;;
52025;SDS011;38041;40.058;18.328;2023-04-06T05:56:28;5.53;;;3.20;;
52025;SDS011;38041;40.058;18.328;2023-04-06T05:58:57;6.43;;;4.20;;
52025;SDS011;38041;40.058;18.328;2023-04-06T06:01:27;4.67;;;4.17;;
52025;SDS011;38041;40.058;18.328;2023-04-06T06:03:55;5.00;;;4.50;;
52025;SDS011;38041;40.058;18.328;2023-04-06T06:06:27;5.63;;;4.90;;
52025;SDS011;38041;40.058;18.328;2023-04-06T06:09:23;9.43;;;4.70;;
52025;SDS011;38041;40.058;18.328;2023-04-06T06:11:59;6.40;;;4.20;;
52025;SDS011;38041;40.058;18.328;2023-04-06T06:14:28;5.80;;;4.30;;
52025;SDS011;38041;40.058;18.328;2023-04-06T06:16:56;8.90;;;4.43;;
52025;SDS011;38041;40.058;18.328;2023-04-06T06:19:25;6.83;;;4.60;;
52025;SDS011;38041;40.058;18.328;2023-04-06T06:21:56;6.33;;;4.33;;
52025;SDS011;38041;40.058;18.328;2023-04-06T06:24:25;6.37;;;4.97;;
52025;SDS011;38041;40.058;18.328;2023-04-06T06:26:53;5.73;;;5.07;;
52025;SDS011;38041;40.058;18.328;2023-04-06T06:29:25;9.13;;;5.87;;
52025;SDS011;38041;40.058;18.328;2023-04-06T06:31:53;11.63;;;6.77;;
52025;SDS011;38041;40.058;18.328;2023-04-06T06:34:23;9.27;;;6.73;;
52025;SDS011;38041;40.058;18.328;2023-04-06T06:36:54;13.30;;;10.07;;
52025;SDS011;38041;40.058;18.328;2023-04-06T06:39:23;12.73;;;8.33;;
52025;SDS011;38041;40.058;18.328;2023-04-06T06:41:52;13.07;;;8.80;;
52025;SDS011;38041;40.058;18.328;2023-04-06T06:44:39;13.43;;;8.23;;
52025;SDS011;38041;40.058;18.328;2023-04-06T06:47:08;14.77;;;9.33;;
52025;SDS011;38041;40.058;18.328;2023-04-06T06:49:36;12.83;;;8.17;;
52025;SDS011;38041;40.058;18.328;2023-04-06T06:52:04;14.57;;;9.63;;
52025;SDS011;38041;40.058;18.328;2023-04-06T06:54:32;9.40;;;6.17;;
52025;SDS011;38041;40.058;18.328;2023-04-06T06:56:59;12.10;;;6.80;;
52025;SDS011;38041;40.058;18.328;2023-04-06T06:59:27;12.07;;;8.93;;
52025;SDS011;38041;40.058;18.328;2023-04-06T07:01:55;11.50;;;7.57;;
52025;SDS011;38041;40.058;18.328;2023-04-06T07:04:23;8.40;;;6.30;;
52025;SDS011;38041;40.058;18.328;2023-04-06T07:06:51;9.77;;;6.27;;
52025;SDS011;38041;40.058;18.328;2023-04-06T07:09:19;12.63;;;6.63;;
52025;SDS011;38041;40.058;18.328;2023-04-06T07:11:47;11.23;;;8.13;;
52025;SDS011;38041;40.058;18.328;2023-04-06T07:14:15;11.53;;;6.90;;
52025;SDS011;38041;40.058;18.328;2023-04-06T07:16:45;13.03;;;8.80;;
52025;SDS011;38041;40.058;18.328;2023-04-06T07:19:14;13.93;;;7.67;;
52025;SDS011;38041;40.058;18.328;2023-04-06T07:21:42;7.27;;;4.90;;
52025;SDS011;38041;40.058;18.328;2023-04-06T07:24:09;13.67;;;8.77;;
52025;SDS011;38041;40.058;18.328;2023-04-06T07:26:37;9.10;;;5.53;;
52025;SDS011;38041;40.058;18.328;2023-04-06T07:29:05;6.07;;;4.77;;
52025;SDS011;38041;40.058;18.328;2023-04-06T07:31:33;7.17;;;5.70;;
52025;SDS011;38041;40.058;18.328;2023-04-06T07:34:03;5.30;;;4.57;;
52025;SDS011;38041;40.058;18.328;2023-04-06T07:36:31;6.67;;;5.77;;
52025;SDS011;38041;40.058;18.328;2023-04-06T07:38:59;4.37;;;3.77;;
52025;SDS011;38041;40.058;18.328;2023-04-06T07:41:26;4.30;;;3.27;;
52025;SDS011;38041;40.058;18.328;2023-04-06T07:43:55;7.40;;;4.10;;
52025;SDS011;38041;40.058;18.328;2023-04-06T07:46:23;3.80;;;3.30;;
52025;SDS011;38041;40.058;18.328;2023-04-06T07:48:52;3.90;;;3.50;;
52025;SDS011;38041;40.058;18.328;2023-04-06T07:51:20;4.10;;;3.63;;
52025;SDS011;38041;40.058;18.328;2023-04-06T07:53:47;7.03;;;5.20;;
52025;SDS011;38041;40.058;18.328;2023-04-06T07:56:15;8.67;;;6.57;;
52025;SDS011;38041;40.058;18.328;2023-04-06T07:58:43;4.87;;;3.70;;
52025;SDS011;38041;40.058;18.328;2023-04-06T08:01:11;8.33;;;5.97;;
52025;SDS011;38041;40.058;18.328;2023-04-06T08:03:39;11.57;;;6.53;;
52025;SDS011;38041;40.058;18.328;2023-04-06T08:06:06;14.37;;;9.43;;
52025;SDS011;38041;40.058;18.328;2023-04-06T08:08:34;12.63;;;7.80;;
52025;SDS011;38041;40.058;18.328;2023-04-06T08:11:02;10.13;;;6.27;;
52025;SDS011;38041;40.058;18.328;2023-04-06T08:13:30;5.40;;;3.90;;
52025;SDS011;38041;40.058;18.328;2023-04-06T08:15:58;10.43;;;6.33;;
52025;SDS011;38041;40.058;18.328;2023-04-06T08:18:27;9.10;;;4.43;;
52025;SDS011;38041;40.058;18.328;2023-04-06T08:20:56;8.07;;;5.10;;
52025;SDS011;38041;40.058;18.328;2023-04-06T08:23:24;6.27;;;5.00;;
52025;SDS011;38041;40.058;18.328;2023-04-06T08:25:52;8.03;;;5.73;;
52025;SDS011;38041;40.058;18.328;2023-04-06T08:28:20;6.40;;;4.97;;
52025;SDS011;38041;40.058;18.328;2023-04-06T08:30:48;9.17;;;7.00;;
52025;SDS011;38041;40.058;18.328;2023-04-06T08:33:16;7.63;;;5.47;;
52025;SDS011;38041;40.058;18.328;2023-04-06T08:35:44;8.40;;;6.43;;
52025;SDS011;38041;40.058;18.328;2023-04-06T08:38:11;11.27;;;6.30;;
52025;SDS011;38041;40.058;18.328;2023-04-06T08:40:39;14.13;;;8.57;;
52025;SDS011;38041;40.058;18.328;2023-04-06T08:43:08;8.33;;;5.13;;
52025;SDS011;38041;40.058;18.328;2023-04-06T08:45:38;11.77;;;7.00;;
52025;SDS011;38041;40.058;18.328;2023-04-06T08:48:06;5.17;;;4.60;;
52025;SDS011;38041;40.058;18.328;2023-04-06T08:50:34;9.17;;;6.30;;
52025;SDS011;38041;40.058;18.328;2023-04-06T08:53:02;12.00;;;8.80;;
52025;SDS011;38041;40.058;18.328;2023-04-06T08:55:29;17.10;;;10.63;;
52025;SDS011;38041;40.058;18.328;2023-04-06T08:57:58;16.90;;;10.07;;
52025;SDS011;38041;40.058;18.328;2023-04-06T09:00:26;7.47;;;5.67;;
52025;SDS011;38041;40.058;18.328;2023-04-06T09:02:54;7.20;;;5.17;;
52025;SDS011;38041;40.058;18.328;2023-04-06T09:05:23;6.73;;;4.07;;
52025;SDS011;38041;40.058;18.328;2023-04-06T09:07:51;7.10;;;4.33;;
52025;SDS011;38041;40.058;18.328;2023-04-06T09:10:19;15.63;;;6.20;;
52025;SDS011;38041;40.058;18.328;2023-04-06T09:12:47;16.60;;;5.53;;
52025;SDS011;38041;40.058;18.328;2023-04-06T09:15:21;17.90;;;12.37;;
52025;SDS011;38041;40.058;18.328;2023-04-06T09:17:50;9.15;;;4.65;;
52025;SDS011;38041;40.058;18.328;2023-04-06T09:20:23;9.80;;;4.17;;
52025;SDS011;38041;40.058;18.328;2023-04-06T09:22:55;7.07;;;4.10;;
52025;SDS011;38041;40.058;18.328;2023-04-06T09:25:23;7.10;;;4.23;;
52025;SDS011;38041;40.058;18.328;2023-04-06T09:28:00;7.27;;;5.20;;
52025;SDS011;38041;40.058;18.328;2023-04-06T09:30:28;11.02;;;4.30;;
52025;SDS011;38041;40.058;18.328;2023-04-06T09:32:56;5.73;;;3.67;;
52025;SDS011;38041;40.058;18.328;2023-04-06T09:35:25;7.93;;;4.87;;
52025;SDS011;38041;40.058;18.328;2023-04-06T09:37:54;5.57;;;3.20;;
52025;SDS011;38041;40.058;18.328;2023-04-06T09:40:22;6.63;;;3.47;;
52025;SDS011;38041;40.058;18.328;2023-04-06T09:42:50;5.10;;;2.40;;
52025;SDS011;38041;40.058;18.328;2023-04-06T09:45:20;3.70;;;2.30;;
52025;SDS011;38041;40.058;18.328;2023-04-06T09:47:48;4.63;;;2.83;;
52025;SDS011;38041;40.058;18.328;2023-04-06T09:50:19;3.50;;;3.10;;
52025;SDS011;38041;40.058;18.328;2023-04-06T09:52:47;10.83;;;7.00;;
52025;SDS011;38041;40.058;18.328;2023-04-06T09:55:23;6.67;;;3.93;;
52025;SDS011;38041;40.058;18.328;2023-04-06T09:58:06;6.27;;;3.70;;
52025;SDS011;38041;40.058;18.328;2023-04-06T10:00:46;6.87;;;3.07;;
52025;SDS011;38041;40.058;18.328;2023-04-06T10:05:49;11.63;;;6.90;;
52025;SDS011;38041;40.058;18.328;2023-04-06T10:08:17;13.13;;;7.97;;
52025;SDS011;38041;40.058;18.328;2023-04-06T10:10:46;14.80;;;6.73;;
52025;SDS011;38041;40.058;18.328;2023-04-06T10:13:14;5.77;;;4.83;;
52025;SDS011;38041;40.058;18.328;2023-04-06T10:15:42;13.20;;;7.63;;
52025;SDS011;38041;40.058;18.328;2023-04-06T10:18:10;5.03;;;3.60;;
52025;SDS011;38041;40.058;18.328;2023-04-06T10:23:13;8.40;;;5.90;;
52025;SDS011;38041;40.058;18.328;2023-04-06T10:25:52;8.83;;;6.40;;
52025;SDS011;38041;40.058;18.328;2023-04-06T10:28:21;7.77;;;6.03;;
52025;SDS011;38041;40.058;18.328;2023-04-06T10:30:49;9.97;;;5.67;;
52025;SDS011;38041;40.058;18.328;2023-04-06T10:33:17;8.73;;;6.53;;
52025;SDS011;38041;40.058;18.328;2023-04-06T10:35:46;9.43;;;4.60;;
52025;SDS011;38041;40.058;18.328;2023-04-06T10:38:13;6.70;;;4.77;;
52025;SDS011;38041;40.058;18.328;2023-04-06T10:40:41;9.07;;;4.73;;
52025;SDS011;38041;40.058;18.328;2023-04-06T10:45:44;6.50;;;4.43;;
52025;SDS011;38041;40.058;18.328;2023-04-06T10:48:18;6.80;;;4.83;;
52025;SDS011;38041;40.058;18.328;2023-04-06T10:50:47;6.97;;;4.20;;
52025;SDS011;38041;40.058;18.328;2023-04-06T10:53:21;10.20;;;5.10;;
52025;SDS011;38041;40.058;18.328;2023-04-06T10:55:50;8.87;;;4.77;;
52025;SDS011;38041;40.058;18.328;2023-04-06T10:58:17;4.47;;;2.90;;
52025;SDS011;38041;40.058;18.328;2023-04-06T11:00:46;5.77;;;4.30;;
52025;SDS011;38041;40.058;18.328;2023-04-06T11:03:16;4.90;;;3.93;;
52025;SDS011;38041;40.058;18.328;2023-04-06T11:05:44;7.23;;;4.93;;
52025;SDS011;38041;40.058;18.328;2023-04-06T11:08:29;6.87;;;4.37;;
52025;SDS011;38041;40.058;18.328;2023-04-06T11:11:07;5.83;;;4.13;;
52025;SDS011;38041;40.058;18.328;2023-04-06T11:16:12;5.73;;;5.20;;
52025;SDS011;38041;40.058;18.328;2023-04-06T11:21:17;9.10;;;5.93;;
52025;SDS011;38041;40.058;18.328;2023-04-06T11:23:45;6.00;;;5.13;;
52025;SDS011;38041;40.058;18.328;2023-04-06T11:26:13;16.97;;;10.00;;
52025;SDS011;38041;40.058;18.328;2023-04-06T11:28:41;11.67;;;7.27;;
52025;SDS011;38041;40.058;18.328;2023-04-06T11:31:10;11.27;;;7.17;;
52025;SDS011;38041;40.058;18.328;2023-04-06T11:33:38;9.87;;;5.90;;
52025;SDS011;38041;40.058;18.328;2023-04-06T11:36:06;6.90;;;5.47;;
52025;SDS011;38041;40.058;18.328;2023-04-06T11:38:34;8.03;;;6.03;;
52025;SDS011;38041;40.058;18.328;2023-04-06T11:41:06;9.17;;;5.17;;
52025;SDS011;38041;40.058;18.328;2023-04-06T11:43:33;10.00;;;6.10;;
52025;SDS011;38041;40.058;18.328;2023-04-06T11:46:02;11.50;;;5.93;;
52025;SDS011;38041;40.058;18.328;2023-04-06T11:48:30;7.50;;;5.37;;
52025;SDS011;38041;40.058;18.328;2023-04-06T11:50:58;11.80;;;6.13;;
52025;SDS011;38041;40.058;18.328;2023-04-06T11:53:28;10.13;;;6.03;;
52025;SDS011;38041;40.058;18.328;2023-04-06T11:55:56;11.00;;;6.17;;
52025;SDS011;38041;40.058;18.328;2023-04-06T11:58:24;9.87;;;6.70;;
52025;SDS011;38041;40.058;18.328;2023-04-06T12:00:53;10.20;;;6.20;;
52025;SDS011;38041;40.058;18.328;2023-04-06T12:03:21;10.40;;;5.03;;
52025;SDS011;38041;40.058;18.328;2023-04-06T12:05:48;11.73;;;8.00;;
52025;SDS011;38041;40.058;18.328;2023-04-06T12:08:16;12.67;;;5.13;;
52025;SDS011;38041;40.058;18.328;2023-04-06T12:10:44;7.80;;;5.70;;
52025;SDS011;38041;40.058;18.328;2023-04-06T12:13:12;12.67;;;4.97;;
52025;SDS011;38041;40.058;18.328;2023-04-06T12:15:39;9.10;;;4.90;;
52025;SDS011;38041;40.058;18.328;2023-04-06T12:18:07;8.43;;;6.37;;
52025;SDS011;38041;40.058;18.328;2023-04-06T12:20:35;7.30;;;5.50;;
52025;SDS011;38041;40.058;18.328;2023-04-06T12:23:03;6.50;;;4.80;;
52025;SDS011;38041;40.058;18.328;2023-04-06T12:25:31;17.27;;;9.80;;
52025;SDS011;38041;40.058;18.328;2023-04-06T12:27:58;18.93;;;11.33;;
52025;SDS011;38041;40.058;18.328;2023-04-06T12:30:26;8.57;;;4.37;;
52025;SDS011;38041;40.058;18.328;2023-04-06T12:32:54;8.40;;;4.33;;
52025;SDS011;38041;40.058;18.328;2023-04-06T12:35:22;10.80;;;5.20;;
52025;SDS011;38041;40.058;18.328;2023-04-06T12:37:50;7.23;;;5.00;;
52025;SDS011;38041;40.058;18.328;2023-04-06T12:40:17;9.73;;;6.60;;
52025;SDS011;38041;40.058;18.328;2023-04-06T12:42:45;10.63;;;6.07;;
52025;SDS011;38041;40.058;18.328;2023-04-06T12:45:13;4.83;;;3.43;;
52025;SDS011;38041;40.058;18.328;2023-04-06T12:47:41;4.47;;;2.67;;
52025;SDS011;38041;40.058;18.328;2023-04-06T12:50:08;7.23;;;4.40;;
52025;SDS011;38041;40.058;18.328;2023-04-06T12:52:36;6.53;;;4.97;;
52025;SDS011;38041;40.058;18.328;2023-04-06T12:55:04;9.80;;;6.83;;
52025;SDS011;38041;40.058;18.328;2023-04-06T12:57:32;7.67;;;5.40;;
52025;SDS011;38041;40.058;18.328;2023-04-06T13:00:00;7.40;;;4.60;;
52025;SDS011;38041;40.058;18.328;2023-04-06T13:02:28;12.40;;;7.83;;
52025;SDS011;38041;40.058;18.328;2023-04-06T13:04:56;7.53;;;4.83;;
52025;SDS011;38041;40.058;18.328;2023-04-06T13:07:23;17.30;;;10.30;;
52025;SDS011;38041;40.058;18.328;2023-04-06T13:09:51;10.53;;;6.40;;
52025;SDS011;38041;40.058;18.328;2023-04-06T13:12:20;11.30;;;7.77;;
52025;SDS011;38041;40.058;18.328;2023-04-06T13:14:48;14.23;;;6.07;;
52025;SDS011;38041;40.058;18.328;2023-04-06T13:17:19;11.67;;;6.97;;
52025;SDS011;38041;40.058;18.328;2023-04-06T13:19:47;22.30;;;13.70;;
52025;SDS011;38041;40.058;18.328;2023-04-06T13:22:15;9.50;;;3.90;;
52025;SDS011;38041;40.058;18.328;2023-04-06T13:24:43;11.97;;;5.70;;
52025;SDS011;38041;40.058;18.328;2023-04-06T13:27:11;7.97;;;1.60;;
52025;SDS011;38041;40.058;18.328;2023-04-06T13:29:39;8.80;;;3.60;;
52025;SDS011;38041;40.058;18.328;2023-04-06T13:32:07;25.33;;;14.87;;
52025;SDS011;38041;40.058;18.328;2023-04-06T13:34:36;6.17;;;2.90;;
52025;SDS011;38041;40.058;18.328;2023-04-06T13:37:04;14.33;;;5.73;;
52025;SDS011;38041;40.058;18.328;2023-04-06T13:39:32;5.90;;;2.83;;
52025;SDS011;38041;40.058;18.328;2023-04-06T13:42:00;5.80;;;2.80;;
52025;SDS011;38041;40.058;18.328;2023-04-06T13:44:28;8.33;;;3.30;;
52025;SDS011;38041;40.058;18.328;2023-04-06T13:46:56;8.47;;;1.50;;
52025;SDS011;38041;40.058;18.328;2023-04-06T13:49:24;2.37;;;1.60;;
52025;SDS011;38041;40.058;18.328;2023-04-06T13:51:53;5.00;;;2.83;;
52025;SDS011;38041;40.058;18.328;2023-04-06T13:54:21;4.77;;;1.97;;
52025;SDS011;38041;40.058;18.328;2023-04-06T13:56:48;4.83;;;3.57;;
52025;SDS011;38041;40.058;18.328;2023-04-06T13:59:16;6.03;;;3.10;;
52025;SDS011;38041;40.058;18.328;2023-04-06T14:01:44;6.03;;;2.90;;
52025;SDS011;38041;40.058;18.328;2023-04-06T14:04:11;9.40;;;2.87;;
52025;SDS011;38041;40.058;18.328;2023-04-06T14:06:39;6.60;;;3.10;;
52025;SDS011;38041;40.058;18.328;2023-04-06T14:09:07;9.57;;;5.50;;
52025;SDS011;38041;40.058;18.328;2023-04-06T14:11:34;9.00;;;5.13;;
52025;SDS011;38041;40.058;18.328;2023-04-06T14:14:03;12.03;;;5.07;;
52025;SDS011;38041;40.058;18.328;2023-04-06T14:16:31;5.07;;;3.07;;
52025;SDS011;38041;40.058;18.328;2023-04-06T14:18:59;7.73;;;4.33;;
52025;SDS011;38041;40.058;18.328;2023-04-06T14:21:26;7.93;;;3.60;;
52025;SDS011;38041;40.058;18.328;2023-04-06T14:23:54;10.13;;;3.47;;
52025;SDS011;38041;40.058;18.328;2023-04-06T14:26:23;7.73;;;4.53;;
52025;SDS011;38041;40.058;18.328;2023-04-06T14:28:50;11.13;;;5.57;;
52025;SDS011;38041;40.058;18.328;2023-04-06T14:31:19;9.93;;;5.50;;
52025;SDS011;38041;40.058;18.328;2023-04-06T14:33:47;12.57;;;5.83;;
52025;SDS011;38041;40.058;18.328;2023-04-06T14:36:14;26.23;;;15.93;;
52025;SDS011;38041;40.058;18.328;2023-04-06T14:38:42;10.43;;;6.07;;
52025;SDS011;38041;40.058;18.328;2023-04-06T14:41:16;14.23;;;7.87;;
52025;SDS011;38041;40.058;18.328;2023-04-06T14:43:45;16.57;;;8.77;;
52025;SDS011;38041;40.058;18.328;2023-04-06T14:46:13;11.17;;;3.63;;
52025;SDS011;38041;40.058;18.328;2023-04-06T14:48:42;7.67;;;3.80;;
52025;SDS011;38041;40.058;18.328;2023-04-06T14:51:09;12.27;;;3.77;;
52025;SDS011;38041;40.058;18.328;2023-04-06T14:53:37;5.93;;;3.20;;
52025;SDS011;38041;40.058;18.328;2023-04-06T14:56:05;6.43;;;3.13;;
52025;SDS011;38041;40.058;18.328;2023-04-06T14:58:33;8.63;;;4.17;;